createdAt,value
2022-08-20T00:01:38.325Z,98498.31
2022-08-20T00:04:05.259Z,98498.84
2022-08-20T00:06:34.434Z,98494.28
2022-08-20T00:09:01.235Z,98503.94
2022-08-20T00:11:29.078Z,98502.63
2022-08-20T00:14:00.828Z,98508.28
2022-08-20T00:16:36.513Z,98502.63
2022-08-20T00:19:07.575Z,98498.59
2022-08-20T00:21:36.503Z,98507.47
2022-08-20T00:24:04.822Z,98502.94
2022-08-20T00:26:31.703Z,98505.34
2022-08-20T00:28:58.579Z,98510.72
2022-08-20T00:31:25.980Z,98518.25
2022-08-20T00:33:53.735Z,98520.16
2022-08-20T00:36:22.449Z,98516.91
2022-08-20T00:39:00.573Z,98523.63
2022-08-20T00:41:29.257Z,98510.72
2022-08-20T00:44:18.541Z,98509.66
2022-08-20T00:46:46.672Z,98504.84
2022-08-20T00:49:22.806Z,98516.41
2022-08-20T00:52:04.594Z,98512.63
2022-08-20T00:54:43.925Z,98526.88
2022-08-20T00:57:28.895Z,98533.06
2022-08-20T01:00:33.450Z,98533.59
2022-08-20T01:03:01.616Z,98533.28
2022-08-20T01:05:29.827Z,98542.72
2022-08-20T01:07:58.167Z,98548.06
2022-08-20T01:10:32.133Z,98548.88
2022-08-20T01:12:59.908Z,98554.78
2022-08-20T01:15:31.831Z,98560.41
2022-08-20T01:18:00.975Z,98551.28
2022-08-20T01:20:37.950Z,98561.75
2022-08-20T01:23:35.561Z,98554.78
2022-08-20T01:26:30.915Z,98559.31
2022-08-20T01:29:14.009Z,98558.25
2022-08-20T01:31:42.965Z,98551.03
2022-08-20T01:34:15.544Z,98558.00
2022-08-20T01:36:54.240Z,98555.56
2022-08-20T01:39:35.043Z,98562.28
2022-08-20T01:42:59.013Z,98554.78
2022-08-20T01:45:29.231Z,98558.53
2022-08-20T01:47:58.885Z,98563.06
2022-08-20T01:50:30.784Z,98565.53
2022-08-20T01:53:21.283Z,98557.47
2022-08-20T01:55:48.112Z,98572.75
2022-08-20T01:58:15.060Z,98575.69
2022-08-20T02:00:42.157Z,98574.63
2022-08-20T02:03:09.391Z,98578.41
2022-08-20T02:05:36.300Z,98577.31
2022-08-20T02:08:04.717Z,98578.13
2022-08-20T02:10:32.149Z,98581.63
2022-08-20T02:13:02.757Z,98588.06
2022-08-20T02:15:34.844Z,98577.59
2022-08-20T02:18:11.915Z,98578.66
2022-08-20T02:20:40.491Z,98584.56
2022-08-20T02:23:09.048Z,98581.34
2022-08-20T02:25:40.228Z,98588.34
2022-08-20T02:28:11.410Z,98587.25
2022-08-20T02:30:47.297Z,98588.06
2022-08-20T02:33:18.136Z,98586.47
2022-08-20T02:35:49.121Z,98592.09
2022-08-20T02:38:16.719Z,98594.22
2022-08-20T02:40:45.863Z,98594.22
2022-08-20T02:43:13.072Z,98597.47
2022-08-20T02:45:43.818Z,98598.78
2022-08-20T02:48:20.769Z,98598.78
2022-08-20T02:50:52.760Z,98597.16
2022-08-20T02:53:20.580Z,98594.22
2022-08-20T02:55:47.391Z,98587.25
2022-08-20T02:58:14.455Z,98586.69
2022-08-20T03:00:41.751Z,98584.56
2022-08-20T03:03:11.550Z,98581.06
2022-08-20T03:05:41.926Z,98578.66
2022-08-20T03:08:12.171Z,98582.16
2022-08-20T03:10:41.466Z,98579.72
2022-08-20T03:13:12.663Z,98572.22
2022-08-20T03:15:59.426Z,98569.25
2022-08-20T03:18:32.018Z,98569.25
2022-08-20T03:20:59.331Z,98571.69
2022-08-20T03:23:26.549Z,98569.25
2022-08-20T03:25:53.338Z,98577.84
2022-08-20T03:28:20.376Z,98572.47
2022-08-20T03:30:48.627Z,98573.56
2022-08-20T03:33:16.349Z,98568.19
2022-08-20T03:35:43.418Z,98569.00
2022-08-20T03:38:13.141Z,98572.47
2022-08-20T03:40:40.659Z,98565.78
2022-08-20T03:43:10.395Z,98573.28
2022-08-20T03:45:40.464Z,98572.75
2022-08-20T03:48:11.364Z,98573.56
2022-08-20T03:50:41.716Z,98577.03
2022-08-20T03:53:13.133Z,98579.44
2022-08-20T03:55:54.378Z,98579.44
2022-08-20T03:58:29.922Z,98580.56
2022-08-20T04:01:04.095Z,98588.34
2022-08-20T04:03:31.015Z,98592.09
2022-08-20T04:05:58.774Z,98589.13
2022-08-20T04:08:29.621Z,98590.50
2022-08-20T04:10:58.294Z,98577.06
2022-08-20T04:13:28.199Z,98590.22
2022-08-20T04:15:56.755Z,98577.31
2022-08-20T04:18:25.737Z,98583.22
2022-08-20T04:20:53.948Z,98580.28
2022-08-20T04:23:22.357Z,98592.91
2022-08-20T04:25:49.281Z,98589.66
2022-08-20T04:28:30.031Z,98588.59
2022-08-20T04:31:00.493Z,98596.38
2022-08-20T04:33:33.824Z,98599.06
2022-08-20T04:36:05.589Z,98602.28
2022-08-20T04:38:50.596Z,98608.72
2022-08-20T04:41:21.099Z,98604.44
2022-08-20T04:43:55.817Z,98608.47
2022-08-20T04:46:27.495Z,98610.63
2022-08-20T04:48:56.368Z,98606.06
2022-08-20T04:51:24.518Z,98603.94
2022-08-20T04:53:54.286Z,98603.38
2022-08-20T04:56:31.946Z,98607.94
2022-08-20T04:59:01.571Z,98608.47
2022-08-20T05:01:29.413Z,98602.03
2022-08-20T05:03:58.224Z,98606.59
2022-08-20T05:06:29.578Z,98615.19
2022-08-20T05:08:59.428Z,98618.19
2022-08-20T05:11:35.457Z,98623.25
2022-08-20T05:14:09.008Z,98624.63
2022-08-20T05:16:41.017Z,98624.91
2022-08-20T05:19:11.908Z,98630.00
2022-08-20T05:21:39.990Z,98631.63
2022-08-20T05:24:07.969Z,98631.63
2022-08-20T05:26:35.239Z,98633.75
2022-08-20T05:29:04.849Z,98631.88
2022-08-20T05:31:33.603Z,98639.44
2022-08-20T05:34:09.758Z,98638.34
2022-08-20T05:36:40.533Z,98641.84
2022-08-20T05:39:08.876Z,98643.72
2022-08-20T05:41:36.280Z,98639.44
2022-08-20T05:44:04.267Z,98646.13
2022-08-20T05:46:32.140Z,98645.34
2022-08-20T05:49:01.599Z,98648.56
2022-08-20T05:51:29.568Z,98634.03
2022-08-20T05:53:58.263Z,98645.59
2022-08-20T05:56:30.440Z,98648.28
2022-08-20T05:59:01.437Z,98651.22
2022-08-20T06:01:28.537Z,98646.41
2022-08-20T06:04:15.579Z,98649.91
2022-08-20T06:06:46.002Z,98648.00
2022-08-20T06:09:27.945Z,98644.53
2022-08-20T06:12:01.844Z,98652.56
2022-08-20T06:14:29.160Z,98648.00
2022-08-20T06:17:02.748Z,98651.22
2022-08-20T06:19:32.506Z,98657.41
2022-08-20T06:22:00.971Z,98660.66
2022-08-20T06:24:28.034Z,98659.06
2022-08-20T06:27:04.914Z,98661.47
2022-08-20T06:29:33.540Z,98662.28
2022-08-20T06:32:01.586Z,98657.16
2022-08-20T06:34:30.815Z,98663.84
2022-08-20T06:36:59.557Z,98664.41
2022-08-20T06:39:30.960Z,98671.94
2022-08-20T06:41:58.872Z,98662.81
2022-08-20T06:44:25.972Z,98668.72
2022-08-20T06:46:52.903Z,98668.72
2022-08-20T06:49:19.738Z,98661.97
2022-08-20T06:51:46.552Z,98668.47
2022-08-20T06:54:18.790Z,98669.81
2022-08-20T06:56:45.582Z,98669.53
2022-08-20T06:59:12.390Z,98668.19
2022-08-20T07:01:39.301Z,98663.88
2022-08-20T07:04:08.378Z,98671.66
2022-08-20T07:06:35.208Z,98664.16
2022-08-20T07:09:02.135Z,98666.00
2022-08-20T07:11:29.167Z,98683.22
2022-08-20T07:13:58.307Z,98679.75
2022-08-20T07:16:25.840Z,98680.84
2022-08-20T07:18:52.786Z,98691.81
2022-08-20T07:21:19.651Z,98693.16
2022-08-20T07:23:48.854Z,98688.03
2022-08-20T07:26:16.592Z,98690.19
2022-08-20T07:28:43.489Z,98696.34
2022-08-20T07:31:28.907Z,98692.03
2022-08-20T07:33:58.563Z,98693.63
2022-08-20T07:36:27.944Z,98697.66
2022-08-20T07:38:55.085Z,98694.38
2022-08-20T07:41:24.340Z,98693.28
2022-08-20T07:43:51.221Z,98695.13
2022-08-20T07:46:21.404Z,98694.78
2022-08-20T07:48:51.241Z,98696.09
2022-08-20T07:51:22.128Z,98698.50
2022-08-20T07:53:51.630Z,98703.56
2022-08-20T07:56:24.189Z,98699.47
2022-08-20T07:58:55.402Z,98695.09
2022-08-20T08:01:31.662Z,98698.28
2022-08-20T08:04:00.035Z,98694.69
2022-08-20T08:06:31.538Z,98697.59
2022-08-20T08:09:13.227Z,98693.00
2022-08-20T08:11:51.759Z,98700.56
2022-08-20T08:14:26.858Z,98696.47
2022-08-20T08:16:58.055Z,98691.66
2022-08-20T08:19:37.735Z,98699.19
2022-08-20T08:22:12.158Z,98693.00
2022-08-20T08:24:41.552Z,98700.56
2022-08-20T08:27:23.495Z,98693.25
2022-08-20T08:29:50.388Z,98700.25
2022-08-20T08:32:17.430Z,98699.94
2022-08-20T08:34:48.109Z,98692.06
2022-08-20T08:37:14.954Z,98697.38
2022-08-20T08:39:42.295Z,98692.41
2022-08-20T08:42:34.073Z,98696.31
2022-08-20T08:45:04.547Z,98688.91
2022-08-20T08:47:37.712Z,98702.63
2022-08-20T08:50:38.575Z,98703.78
2022-08-20T08:53:33.414Z,98710.09
2022-08-20T08:56:01.664Z,98703.47
2022-08-20T08:58:29.152Z,98710.88
2022-08-20T09:00:57.745Z,98713.09
2022-08-20T09:03:34.049Z,98710.03
2022-08-20T09:06:03.633Z,98710.91
2022-08-20T09:08:50.336Z,98712.28
2022-08-20T09:11:22.407Z,98706.06
2022-08-20T09:13:49.993Z,98704.50
2022-08-20T09:16:16.840Z,98714.53
2022-08-20T09:18:43.653Z,98716.44
2022-08-20T09:21:10.860Z,98716.00
2022-08-20T09:23:37.992Z,98717.19
2022-08-20T09:26:05.111Z,98715.00
2022-08-20T09:28:34.811Z,98719.16
2022-08-20T09:31:03.127Z,98717.06
2022-08-20T09:33:31.670Z,98724.66
2022-08-20T09:35:58.559Z,98722.38
2022-08-20T09:38:25.510Z,98718.63
2022-08-20T09:40:52.343Z,98721.22
2022-08-20T09:43:19.177Z,98721.22
2022-08-20T09:45:46.012Z,98718.06
2022-08-20T09:48:12.776Z,98708.94
2022-08-20T09:50:47.547Z,98717.09
2022-08-20T09:53:16.437Z,98709.81
2022-08-20T09:55:51.305Z,98712.50
2022-08-20T09:58:38.467Z,98716.75
2022-08-20T10:01:15.424Z,98715.88
2022-08-20T10:03:44.638Z,98721.63
2022-08-20T10:06:14.617Z,98716.06
2022-08-20T10:08:41.665Z,98717.00
2022-08-20T10:11:08.763Z,98715.13
2022-08-20T10:13:35.539Z,98718.06
2022-08-20T10:16:02.545Z,98706.56
2022-08-20T10:18:29.390Z,98707.22
2022-08-20T10:20:56.208Z,98707.66
2022-08-20T10:23:22.973Z,98705.03
2022-08-20T10:25:49.807Z,98696.50
2022-08-20T10:28:16.614Z,98699.88
2022-08-20T10:30:45.041Z,98695.09
2022-08-20T10:33:11.853Z,98682.25
2022-08-20T10:35:38.694Z,98685.19
2022-08-20T10:38:05.496Z,98683.19
2022-08-20T10:40:32.324Z,98688.38
2022-08-20T10:42:59.186Z,98691.16
2022-08-20T10:45:26.018Z,98687.25
2022-08-20T10:47:53.064Z,98684.59
2022-08-20T10:50:20.168Z,98674.25
2022-08-20T10:52:47.474Z,98675.50
2022-08-20T10:55:15.128Z,98674.38
2022-08-20T10:57:43.339Z,98666.50
2022-08-20T11:00:14.881Z,98662.34
2022-08-20T11:02:41.732Z,98659.31
2022-08-20T11:05:09.488Z,98676.53
2022-08-20T11:07:54.930Z,98667.81
2022-08-20T11:10:28.859Z,98684.34
2022-08-20T11:12:55.911Z,98684.94
2022-08-20T11:15:23.388Z,98688.28
2022-08-20T11:17:50.824Z,98693.81
2022-08-20T11:20:21.165Z,98694.50
2022-08-20T11:22:48.235Z,98695.06
2022-08-20T11:25:15.284Z,98689.22
2022-08-20T11:27:46.675Z,98693.16
2022-08-20T11:30:23.611Z,98691.75
2022-08-20T11:32:50.589Z,98695.97
2022-08-20T11:35:41.716Z,98693.47
2022-08-20T11:38:05.536Z,98684.50
2022-08-20T11:40:32.492Z,98693.81
2022-08-20T11:43:14.283Z,98690.44
2022-08-20T11:45:43.449Z,98684.88
2022-08-20T11:48:10.195Z,98682.16
2022-08-20T11:50:37.070Z,98682.94
2022-08-20T11:53:03.943Z,98674.16
2022-08-20T11:55:31.107Z,98675.25
2022-08-20T11:58:00.630Z,98667.84
2022-08-20T12:00:33.375Z,98666.91
2022-08-20T12:03:08.871Z,98665.75
2022-08-20T12:05:38.348Z,98659.41
2022-08-20T12:08:05.760Z,98668.72
2022-08-20T12:10:33.261Z,98667.09
2022-08-20T12:13:00.320Z,98667.09
2022-08-20T12:15:29.666Z,98672.34
2022-08-20T12:17:56.822Z,98666.19
2022-08-20T12:20:25.145Z,98672.41
2022-08-20T12:22:53.895Z,98669.00
2022-08-20T12:25:20.796Z,98668.09
2022-08-20T12:27:47.648Z,98664.38
2022-08-20T12:30:22.743Z,98661.22
2022-08-20T12:32:50.309Z,98663.81
2022-08-20T12:35:19.245Z,98661.13
2022-08-20T12:37:47.037Z,98654.91
2022-08-20T12:40:31.764Z,98658.94
2022-08-20T12:43:03.808Z,98666.94
2022-08-20T12:45:33.171Z,98665.16
2022-08-20T12:48:10.087Z,98661.00
2022-08-20T12:50:39.859Z,98656.03
2022-08-20T12:53:07.875Z,98655.69
2022-08-20T12:55:35.471Z,98650.84
2022-08-20T12:58:04.724Z,98660.50
2022-08-20T13:00:46.509Z,98656.91
2022-08-20T13:03:19.484Z,98661.94
2022-08-20T13:05:47.573Z,98662.34
2022-08-20T13:08:14.636Z,98656.38
2022-08-20T13:10:45.522Z,98663.31
2022-08-20T13:13:20.991Z,98665.81
2022-08-20T13:15:50.508Z,98663.53
2022-08-20T13:18:18.892Z,98667.28
2022-08-20T13:20:46.022Z,98663.88
2022-08-20T13:23:13.181Z,98668.44
2022-08-20T13:25:40.087Z,98670.13
2022-08-20T13:28:06.963Z,98668.63
2022-08-20T13:30:38.494Z,98658.41
2022-08-20T13:33:05.470Z,98663.34
2022-08-20T13:35:32.421Z,98655.03
2022-08-20T13:37:59.382Z,98655.31
2022-08-20T13:40:26.614Z,98653.72
2022-08-20T13:42:53.621Z,98645.59
2022-08-20T13:45:20.687Z,98655.03
2022-08-20T13:47:54.215Z,98647.19
2022-08-20T13:50:27.086Z,98649.78
2022-08-20T13:52:54.504Z,98644.25
2022-08-20T13:55:26.774Z,98644.94
2022-08-20T13:57:55.777Z,98626.66
2022-08-20T14:00:31.854Z,98631.41
2022-08-20T14:03:00.911Z,98635.66
2022-08-20T14:05:29.240Z,98629.25
2022-08-20T14:07:56.575Z,98626.00
2022-08-20T14:10:31.177Z,98621.13
2022-08-20T14:12:59.519Z,98622.19
2022-08-20T14:15:26.453Z,98627.53
2022-08-20T14:17:56.222Z,98621.78
2022-08-20T14:20:29.240Z,98618.63
2022-08-20T14:22:57.729Z,98621.03
2022-08-20T14:25:26.586Z,98622.13
2022-08-20T14:27:55.080Z,98617.63
2022-08-20T14:30:30.515Z,98615.59
2022-08-20T14:32:57.466Z,98615.13
2022-08-20T14:35:24.702Z,98607.44
2022-08-20T14:37:54.321Z,98607.91
2022-08-20T14:40:24.159Z,98606.63
2022-08-20T14:42:51.981Z,98602.78
2022-08-20T14:45:20.293Z,98595.84
2022-08-20T14:47:54.035Z,98602.84
2022-08-20T14:50:34.699Z,98600.91
2022-08-20T14:53:01.908Z,98606.88
2022-08-20T14:55:35.820Z,98602.03
2022-08-20T14:58:11.659Z,98596.41
2022-08-20T15:00:39.648Z,98590.31
2022-08-20T15:03:06.595Z,98590.09
2022-08-20T15:05:34.734Z,98585.44
2022-08-20T15:08:08.041Z,98577.81
2022-08-20T15:10:37.176Z,98583.28
2022-08-20T15:13:04.115Z,98574.31
2022-08-20T15:15:30.956Z,98581.06
2022-08-20T15:18:00.545Z,98581.13
2022-08-20T15:20:31.379Z,98576.81
2022-08-20T15:22:59.221Z,98578.88
2022-08-20T15:25:36.856Z,98574.25
2022-08-20T15:28:08.623Z,98570.47
2022-08-20T15:30:39.047Z,98565.50
2022-08-20T15:33:06.319Z,98562.75
2022-08-20T15:35:33.428Z,98566.13
2022-08-20T15:38:01.705Z,98555.91
2022-08-20T15:40:32.400Z,98567.75
2022-08-20T15:43:02.770Z,98565.19
2022-08-20T15:45:31.341Z,98558.31
2022-08-20T15:48:17.194Z,98550.97
2022-08-20T15:51:27.515Z,98555.13
2022-08-20T15:54:07.646Z,98558.81
2022-08-20T15:56:50.302Z,98571.91
2022-08-20T15:59:32.544Z,98562.28
2022-08-20T16:02:45.080Z,98564.06
2022-08-20T16:05:17.654Z,98573.31
2022-08-20T16:08:06.048Z,98573.47
2022-08-20T16:10:48.193Z,98574.75
2022-08-20T16:13:49.203Z,98582.56
2022-08-20T16:16:33.806Z,98579.19
2022-08-20T16:19:01.867Z,98579.94
2022-08-20T16:21:37.538Z,98581.69
2022-08-20T16:24:07.920Z,98584.53
2022-08-20T16:26:51.109Z,98591.41
2022-08-20T16:29:26.603Z,98595.38
2022-08-20T16:32:59.786Z,98590.22
2022-08-20T16:35:42.013Z,98589.88
2022-08-20T16:38:43.007Z,98589.38
2022-08-20T16:41:34.667Z,98585.19
2022-08-20T16:44:12.780Z,98587.56
2022-08-20T16:47:14.697Z,98592.28
2022-08-20T16:50:06.246Z,98584.31
2022-08-20T16:52:33.144Z,98594.63
2022-08-20T16:55:00.024Z,98594.16
2022-08-20T16:57:28.562Z,98587.75
2022-08-20T17:00:10.923Z,98587.38
2022-08-20T17:02:53.530Z,98588.13
2022-08-20T17:05:23.806Z,98584.94
2022-08-20T17:08:01.071Z,98590.34
2022-08-20T17:10:33.557Z,98590.00
2022-08-20T17:13:23.807Z,98595.06
2022-08-20T17:15:58.741Z,98592.13
2022-08-20T17:18:29.813Z,98597.34
2022-08-20T17:21:30.460Z,98588.56
2022-08-20T17:24:02.665Z,98590.56
2022-08-20T17:26:46.392Z,98592.97
2022-08-20T17:29:27.319Z,98595.91
2022-08-20T17:32:09.117Z,98596.06
2022-08-20T17:34:53.665Z,98590.13
2022-08-20T17:37:27.294Z,98594.84
2022-08-20T17:40:17.294Z,98589.25
2022-08-20T17:42:56.757Z,98585.56
2022-08-20T17:45:34.186Z,98591.41
2022-08-20T17:48:01.593Z,98595.78
2022-08-20T17:50:40.771Z,98591.59
2022-08-20T17:53:23.636Z,98593.00
2022-08-20T17:55:58.706Z,98595.00
2022-08-20T17:58:54.274Z,98600.34
2022-08-20T18:01:23.641Z,98600.13
2022-08-20T18:03:52.983Z,98599.75
2022-08-20T18:07:04.698Z,98601.25
2022-08-20T18:09:50.214Z,98606.25
2022-08-20T18:12:37.111Z,98609.56
2022-08-20T18:15:26.036Z,98609.75
2022-08-20T18:18:30.422Z,98616.94
2022-08-20T18:21:42.172Z,98606.50
2022-08-20T18:24:17.478Z,98611.03
2022-08-20T18:26:56.657Z,98616.22
2022-08-20T18:29:31.517Z,98628.72
2022-08-20T18:32:23.335Z,98624.78
2022-08-20T18:34:51.147Z,98626.19
2022-08-20T18:37:17.869Z,98623.63
2022-08-20T18:39:48.546Z,98616.13
2022-08-20T18:42:35.837Z,98616.28
2022-08-20T18:45:05.020Z,98612.34
2022-08-20T18:47:34.601Z,98622.16
2022-08-20T18:50:15.705Z,98624.13
2022-08-20T18:53:33.707Z,98630.78
2022-08-20T18:56:14.060Z,98628.16
2022-08-20T18:59:01.686Z,98642.03
2022-08-20T19:01:31.837Z,98642.13
2022-08-20T19:03:58.758Z,98648.94
2022-08-20T19:06:55.514Z,98646.06
2022-08-20T19:09:40.531Z,98647.75
2022-08-20T19:12:32.418Z,98647.00
2022-08-20T19:15:07.058Z,98648.09
2022-08-20T19:17:52.897Z,98657.13
2022-08-20T19:20:25.773Z,98652.66
2022-08-20T19:22:59.148Z,98654.03
2022-08-20T19:25:37.968Z,98652.50
2022-08-20T19:28:21.148Z,98653.13
2022-08-20T19:30:48.242Z,98664.47
2022-08-20T19:33:25.307Z,98658.81
2022-08-20T19:35:52.539Z,98654.28
2022-08-20T19:38:20.908Z,98656.22
2022-08-20T19:40:51.614Z,98658.69
2022-08-20T19:43:44.620Z,98655.25
2022-08-20T19:46:17.956Z,98660.63
2022-08-20T19:49:19.210Z,98665.06
2022-08-20T19:52:17.401Z,98663.50
2022-08-20T19:54:53.316Z,98674.28
2022-08-20T19:57:22.514Z,98669.50
2022-08-20T20:00:12.130Z,98667.38
2022-08-20T20:02:41.433Z,98661.44
2022-08-20T20:05:10.367Z,98664.69
2022-08-20T20:07:46.590Z,98656.63
2022-08-20T20:10:36.245Z,98662.84
2022-08-20T20:13:16.531Z,98664.22
2022-08-20T20:15:44.106Z,98670.72
2022-08-20T20:18:12.937Z,98663.50
2022-08-20T20:20:57.642Z,98672.44
2022-08-20T20:23:45.769Z,98664.34
2022-08-20T20:26:19.869Z,98661.66
2022-08-20T20:28:54.668Z,98671.88
2022-08-20T20:31:31.257Z,98678.69
2022-08-20T20:34:09.347Z,98671.94
2022-08-20T20:36:42.785Z,98678.69
2022-08-20T20:39:27.548Z,98673.38
2022-08-20T20:41:59.289Z,98676.88
2022-08-20T20:44:45.025Z,98675.28
2022-08-20T20:47:35.886Z,98672.31
2022-08-20T20:50:10.431Z,98665.88
2022-08-20T20:52:49.663Z,98663.47
2022-08-20T20:55:31.072Z,98664.28
2022-08-20T20:57:59.839Z,98668.38
2022-08-20T21:00:34.146Z,98667.81
2022-08-20T21:03:03.813Z,98677.53
2022-08-20T21:05:33.146Z,98673.28
2022-08-20T21:08:05.273Z,98683.78
2022-08-20T21:10:37.507Z,98684.06
2022-08-20T21:13:08.061Z,98681.94
2022-08-20T21:15:37.860Z,98678.97
2022-08-20T21:18:09.046Z,98690.34
2022-08-20T21:20:37.406Z,98681.75
2022-08-20T21:23:05.353Z,98690.34
2022-08-20T21:25:35.095Z,98689.53
2022-08-20T21:28:03.581Z,98688.22
2022-08-20T21:30:31.426Z,98703.03
2022-08-20T21:32:58.412Z,98693.88
2022-08-20T21:35:25.567Z,98699.81
2022-08-20T21:37:52.633Z,98695.00
2022-08-20T21:40:21.478Z,98696.03
2022-08-20T21:42:49.390Z,98690.41
2022-08-20T21:45:19.639Z,98694.19
2022-08-20T21:47:48.667Z,98696.63
2022-08-20T21:50:19.398Z,98697.44
2022-08-20T21:52:59.101Z,98691.78
2022-08-20T21:55:28.503Z,98687.72
2022-08-20T21:57:55.591Z,98696.13
2022-08-20T22:00:59.082Z,98692.38
2022-08-20T22:03:32.926Z,98697.22
2022-08-20T22:06:01.605Z,98692.34
2022-08-20T22:08:28.775Z,98692.88
2022-08-20T22:10:58.482Z,98706.88
2022-08-20T22:13:32.999Z,98706.34
2022-08-20T22:16:03.936Z,98705.25
2022-08-20T22:18:31.236Z,98706.59
2022-08-20T22:20:58.519Z,98702.56
2022-08-20T22:23:25.828Z,98704.44
2022-08-20T22:25:52.679Z,98714.63
2022-08-20T22:28:19.966Z,98709.25
2022-08-20T22:30:47.369Z,98713.84
2022-08-20T22:33:22.000Z,98712.19
2022-08-20T22:35:53.775Z,98710.06
2022-08-20T22:38:21.908Z,98708.72
2022-08-20T22:40:49.539Z,98708.16
2022-08-20T22:43:17.259Z,98717.50
2022-08-20T22:45:48.975Z,98708.38
2022-08-20T22:48:19.086Z,98725.31
2022-08-20T22:50:47.913Z,98723.94
2022-08-20T22:53:16.222Z,98722.34
2022-08-20T22:55:43.103Z,98728.75
2022-08-20T22:58:10.610Z,98728.22
2022-08-20T23:00:38.641Z,98722.84
2022-08-20T23:03:07.168Z,98729.06
2022-08-20T23:05:36.859Z,98733.59
2022-08-20T23:08:06.676Z,98725.00
2022-08-20T23:10:36.819Z,98723.38
2022-08-20T23:13:05.159Z,98721.75
2022-08-20T23:15:37.043Z,98720.94
2022-08-20T23:18:15.798Z,98722.81
2022-08-20T23:20:48.664Z,98720.34
2022-08-20T23:23:15.519Z,98717.91
2022-08-20T23:25:42.453Z,98729.94
2022-08-20T23:28:09.961Z,98722.94
2022-08-20T23:30:36.890Z,98722.94
2022-08-20T23:33:04.072Z,98727.19
2022-08-20T23:35:31.992Z,98720.16
2022-08-20T23:38:00.374Z,98714.75
2022-08-20T23:40:28.950Z,98714.16
2022-08-20T23:42:57.654Z,98717.56
2022-08-20T23:45:24.936Z,98719.63
2022-08-20T23:47:51.951Z,98715.59
2022-08-20T23:50:24.190Z,98713.91
2022-08-20T23:52:52.317Z,98715.16
2022-08-20T23:55:20.789Z,98705.97
2022-08-20T23:57:47.577Z,98714.25
